Time;durP1;ratioP1;P1;durP2;ratioP2;P2;SDS_P1;SDS_P2;PMS_P1;PMS_P2;Temp;Humidity;BMP_temperature;BMP_pressure;BME280_temperature;BME280_humidity;BME280_pressure;Samples;Min_cycle;Max_cycle;Signal;HPM_P1;HPM_P2
2023/03/05 00:00:50;;;;;;;1.87;1.27;;;-1.90;80.80;;;;;;5032206;28;20185;-84
2023/03/05 00:03:16;;;;;;;3.50;1.20;;;-1.80;80.30;;;;;;5032331;28;20191;-84
2023/03/05 00:05:41;;;;;;;5.73;1.60;;;-1.80;79.40;;;;;;5014501;28;20697;-84
2023/03/05 00:08:07;;;;;;;1.03;1.03;;;-1.90;80.70;;;;;;5032826;28;20644;-82
2023/03/05 00:10:33;;;;;;;1.60;1.50;;;-1.90;81.10;;;;;;5032196;28;20740;-84
2023/03/05 00:12:58;;;;;;;1.60;1.37;;;-1.90;81.40;;;;;;4981787;28;20695;-83
2023/03/05 00:15:24;;;;;;;1.40;1.33;;;-2.00;82.20;;;;;;5032309;28;20236;-84
2023/03/05 00:17:50;;;;;;;1.83;1.73;;;-1.80;82.80;;;;;;5032124;28;20192;-84
2023/03/05 00:20:16;;;;;;;4.40;1.63;;;-1.80;84.30;;;;;;4998222;28;20278;-84
2023/03/05 00:22:42;;;;;;;1.23;1.23;;;-2.10;83.70;;;;;;5032353;28;20179;-84
2023/03/05 00:25:08;;;;;;;3.70;1.37;;;-2.20;83.00;;;;;;5032531;28;20187;-84
2023/03/05 00:27:34;;;;;;;1.30;1.30;;;-2.20;83.70;;;;;;5014398;28;20278;-84
2023/03/05 00:29:59;;;;;;;1.93;1.83;;;-1.10;84.50;;;;;;5031922;28;20217;-84
2023/03/05 00:32:25;;;;;;;5.93;1.40;;;-2.20;82.90;;;;;;5014509;28;20180;-84
2023/03/05 00:34:51;;;;;;;1.83;1.73;;;-2.20;82.50;;;;;;4997619;28;20223;-84
2023/03/05 00:37:16;;;;;;;1.37;1.30;;;-1.90;83.50;;;;;;5033036;28;20196;-84
2023/03/05 00:39:42;;;;;;;5.40;2.30;;;-2.20;82.50;;;;;;5035715;28;20177;-84
2023/03/05 00:42:08;;;;;;;1.20;1.20;;;-1.60;83.10;;;;;;5017695;28;20654;-84
2023/03/05 00:44:33;;;;;;;1.20;1.20;;;-2.30;82.70;;;;;;5035604;28;20191;-84
2023/03/05 00:46:59;;;;;;;0.93;0.93;;;-2.40;82.90;;;;;;5035221;28;20184;-84
2023/03/05 00:49:25;;;;;;;6.00;2.13;;;-2.20;83.60;;;;;;5035289;28;20180;-84
2023/03/05 00:51:51;;;;;;;1.20;1.20;;;-2.40;83.80;;;;;;5017749;28;20182;-84
2023/03/05 00:54:16;;;;;;;1.20;1.20;;;-2.50;84.10;;;;;;5035398;28;20299;-84
2023/03/05 00:56:42;;;;;;;1.63;1.53;;;-1.10;85.10;;;;;;5035366;28;20611;-83
2023/03/05 00:59:08;;;;;;;0.87;0.87;;;-2.50;85.00;;;;;;5035033;28;20177;-84
2023/03/05 01:01:33;;;;;;;2.60;1.70;;;-2.10;85.00;;;;;;5035144;28;20628;-84
2023/03/05 01:04:00;;;;;;;0.90;0.90;;;-1.90;85.70;;;;;;5017404;28;20191;-84
2023/03/05 01:06:26;;;;;;;0.87;0.87;;;-2.40;85.80;;;;;;5018066;28;20190;-84
2023/03/05 01:08:51;;;;;;;1.57;1.47;;;-2.60;85.30;;;;;;5017445;28;20177;-84
2023/03/05 01:11:17;;;;;;;1.10;1.10;;;-1.60;86.90;;;;;;5035170;28;20255;-84
2023/03/05 01:13:43;;;;;;;2.93;1.47;;;-1.10;87.20;;;;;;5035069;28;20707;-82
2023/03/05 01:16:09;;;;;;;4.40;1.80;;;-2.70;85.90;;;;;;5017125;28;20199;-84
2023/03/05 01:18:36;;;;;;;2.13;1.87;;;-1.40;86.60;;;;;;5017189;28;20669;-84
2023/03/05 01:21:03;;;;;;;4.53;2.13;;;-1.40;86.60;;;;;;5034769;28;20259;-84
2023/03/05 01:23:28;;;;;;;1.10;1.10;;;-2.70;85.80;;;;;;5034673;28;20181;-85
2023/03/05 01:25:59;;;;;;;0.90;0.90;;;-1.70;87.20;;;;;;5016862;28;20184;-84
2023/03/05 01:28:25;;;;;;;1.87;1.77;;;-2.70;86.30;;;;;;5017092;28;20178;-82
2023/03/05 01:30:51;;;;;;;0.90;0.90;;;-2.70;86.80;;;;;;5034466;28;20199;-84
2023/03/05 01:33:17;;;;;;;1.60;1.53;;;-2.10;87.40;;;;;;5017162;28;20180;-84
2023/03/05 01:35:46;;;;;;;0.80;0.80;;;-1.10;87.90;;;;;;5016915;28;20188;-84
2023/03/05 01:38:12;;;;;;;1.00;1.00;;;-2.70;86.90;;;;;;5034471;28;20192;-82
2023/03/05 01:40:37;;;;;;;1.50;1.50;;;-1.80;87.50;;;;;;5034593;28;20272;-82
2023/03/05 01:43:12;;;;;;;1.40;1.40;;;-2.80;85.70;;;;;;5000204;28;20194;-83
2023/03/05 01:45:58;;;;;;;1.73;1.70;;;-2.00;86.70;;;;;;5016478;28;20260;-84
2023/03/05 01:48:25;;;;;;;2.57;2.37;;;-2.70;86.20;;;;;;5016387;28;20191;-82
2023/03/05 01:50:50;;;;;;;7.53;1.37;;;-2.50;87.00;;;;;;5034401;28;20187;-82
2023/03/05 01:53:16;;;;;;;1.73;1.33;;;-0.70;88.00;;;;;;5016375;28;20580;-82
2023/03/05 01:55:42;;;;;;;1.10;1.10;;;-2.70;85.80;;;;;;5016448;28;20180;-84
2023/03/05 01:58:12;;;;;;;1.53;1.43;;;-2.10;86.50;;;;;;5033937;28;20191;-82
2023/03/05 02:00:45;;;;;;;1.27;1.27;;;-2.10;87.20;;;;;;5034288;28;20200;-82
2023/03/05 02:03:12;;;;;;;1.20;1.20;;;-2.00;86.90;;;;;;5034137;28;20184;-82
2023/03/05 02:05:42;;;;;;;1.60;1.53;;;-2.80;86.90;;;;;;5016467;28;20180;-83
2023/03/05 02:08:13;;;;;;;1.00;1.00;;;-1.60;87.80;;;;;;5016591;28;20299;-82
2023/03/05 02:10:44;;;;;;;1.63;1.53;;;-2.80;88.80;;;;;;5034031;28;20180;-82
2023/03/05 02:13:17;;;;;;;0.97;0.97;;;-2.80;88.60;;;;;;5033780;28;20191;-82
2023/03/05 02:15:43;;;;;;;1.20;1.20;;;-1.40;90.30;;;;;;5016248;28;20195;-82
2023/03/05 02:18:10;;;;;;;1.10;1.07;;;-2.10;90.80;;;;;;5016084;28;20276;-82
2023/03/05 02:20:52;;;;;;;1.20;1.20;;;-2.10;92.10;;;;;;4999669;28;20280;-81
2023/03/05 02:23:21;;;;;;;0.80;0.80;;;-2.90;92.80;;;;;;5033404;28;20184;-81
2023/03/05 02:25:47;;;;;;;0.90;0.90;;;-2.10;95.00;;;;;;5016215;28;20182;-82
2023/03/05 02:28:15;;;;;;;1.00;1.00;;;-3.10;96.80;;;;;;5015698;28;20617;-81
2023/03/05 02:30:41;;;;;;;1.60;1.50;;;-2.90;99.40;;;;;;5033970;28;20241;-81
2023/03/05 02:33:07;;;;;;;1.70;1.53;;;-3.20;99.90;;;;;;5015738;28;20184;-83
2023/03/05 02:35:33;;;;;;;1.00;1.00;;;-3.20;99.90;;;;;;5033383;28;20221;-81
2023/03/05 02:37:59;;;;;;;1.90;1.80;;;-3.20;99.90;;;;;;4999170;28;20197;-82
2023/03/05 02:40:24;;;;;;;1.37;1.37;;;-1.90;99.90;;;;;;5033559;28;20184;-83
2023/03/05 02:42:50;;;;;;;1.40;1.30;;;-3.20;99.90;;;;;;5015870;28;20179;-82
2023/03/05 02:45:16;;;;;;;1.40;1.40;;;-3.20;99.90;;;;;;4999147;28;20190;-82
2023/03/05 02:47:42;;;;;;;1.73;1.67;;;-3.10;99.90;;;;;;5015611;28;20189;-83
2023/03/05 02:50:09;;;;;;;2.10;2.00;;;-3.10;99.90;;;;;;5015465;28;20187;-82
2023/03/05 02:52:35;;;;;;;5.40;1.93;;;-3.20;99.90;;;;;;5015715;28;20187;-83
2023/03/05 02:55:00;;;;;;;1.33;1.33;;;-3.10;99.90;;;;;;5015221;28;20694;-84
2023/03/05 02:57:26;;;;;;;1.80;1.70;;;-2.90;99.90;;;;;;5033121;28;20198;-82
2023/03/05 02:59:53;;;;;;;1.33;1.33;;;-2.10;99.90;;;;;;5032499;28;20256;-82
2023/03/05 03:02:19;;;;;;;2.00;1.90;;;-2.20;99.90;;;;;;5015194;28;20692;-82
2023/03/05 03:04:45;;;;;;;1.17;1.17;;;-1.80;99.90;;;;;;5032983;28;20187;-83
2023/03/05 03:07:12;;;;;;;1.63;1.53;;;-3.10;99.90;;;;;;5014994;28;20206;-82
2023/03/05 03:09:38;;;;;;;5.67;1.70;;;-3.20;99.90;;;;;;5033381;28;20172;-82
2023/03/05 03:12:06;;;;;;;1.67;1.57;;;-3.20;99.90;;;;;;5032597;28;20327;-82
2023/03/05 03:14:37;;;;;;;1.40;1.30;;;-3.10;99.90;;;;;;5015327;28;20243;-82
2023/03/05 03:17:07;;;;;;;1.20;1.20;;;-3.10;99.90;;;;;;5015054;28;20194;-83
2023/03/05 03:19:34;;;;;;;3.40;2.13;;;-3.20;99.90;;;;;;5015702;28;20686;-82
2023/03/05 03:21:59;;;;;;;2.30;2.20;;;-3.10;99.90;;;;;;5015009;28;20294;-82
2023/03/05 03:24:25;;;;;;;1.53;1.43;;;-3.10;99.90;;;;;;5015116;28;20267;-83
2023/03/05 03:26:51;;;;;;;1.63;1.53;;;-3.20;99.90;;;;;;5032815;28;20535;-82
2023/03/05 03:29:16;;;;;;;1.70;1.67;;;-3.20;99.90;;;;;;5015033;28;20703;-82
2023/03/05 03:31:44;;;;;;;1.70;1.60;;;-3.20;99.90;;;;;;5032764;28;20188;-82
2023/03/05 03:34:14;;;;;;;1.60;1.50;;;-2.10;99.90;;;;;;5014703;28;20609;-83
2023/03/05 03:36:44;;;;;;;1.40;1.40;;;-3.30;99.90;;;;;;4999603;28;20191;-82
2023/03/05 03:39:10;;;;;;;0.90;0.90;;;-3.30;99.90;;;;;;5032979;28;20179;-83
2023/03/05 03:41:40;;;;;;;1.20;1.20;;;-3.00;99.90;;;;;;4998870;28;20652;-82
2023/03/05 03:44:07;;;;;;;1.60;1.50;;;-3.30;99.90;;;;;;5015510;28;20326;-82
2023/03/05 03:46:33;;;;;;;1.30;1.30;;;-3.30;99.90;;;;;;4998718;28;20188;-82
2023/03/05 03:48:59;;;;;;;1.57;1.47;;;-2.10;99.90;;;;;;5014982;28;20665;-82
2023/03/05 03:51:25;;;;;;;1.73;1.60;;;-3.30;99.90;;;;;;5018235;28;20179;-82
2023/03/05 03:53:50;;;;;;;1.00;1.00;;;-3.30;99.90;;;;;;5021373;28;20211;-82
2023/03/05 03:56:16;;;;;;;6.47;1.70;;;-3.30;99.90;;;;;;5019023;28;20208;-82
2023/03/05 03:58:42;;;;;;;1.30;1.30;;;-3.40;99.90;;;;;;5017387;28;20709;-82
2023/03/05 04:01:07;;;;;;;2.73;1.90;;;-2.50;99.90;;;;;;5052089;28;20179;-85
2023/03/05 04:03:33;;;;;;;1.33;1.33;;;-3.30;99.90;;;;;;5018488;28;20674;-82
2023/03/05 04:05:59;;;;;;;3.50;2.50;;;-2.70;99.90;;;;;;5035018;28;20190;-82
2023/03/05 04:08:24;;;;;;;1.20;1.20;;;-3.20;99.90;;;;;;5052212;28;20237;-82
2023/03/05 04:10:50;;;;;;;2.20;2.00;;;-1.80;99.90;;;;;;5034660;28;20193;-82
2023/03/05 04:13:16;;;;;;;1.10;1.10;;;-3.20;99.90;;;;;;5054441;28;20185;-82
2023/03/05 04:15:41;;;;;;;9.77;2.07;;;-2.10;99.90;;;;;;5038418;28;20221;-82
2023/03/05 04:18:08;;;;;;;4.30;1.83;;;-2.00;99.90;;;;;;5038391;28;20202;-83
2023/03/05 04:20:33;;;;;;;0.83;0.83;;;-1.90;99.90;;;;;;5055933;28;20261;-82
2023/03/05 04:22:59;;;;;;;1.13;1.13;;;-2.50;99.90;;;;;;5038063;28;20309;-82
2023/03/05 04:25:25;;;;;;;1.90;1.20;;;-3.20;99.90;;;;;;5021412;28;20178;-82
2023/03/05 04:27:50;;;;;;;1.33;1.33;;;-2.30;99.90;;;;;;5055840;28;20263;-82
2023/03/05 04:30:16;;;;;;;3.73;1.33;;;-3.00;99.90;;;;;;5021307;28;20186;-81
2023/03/05 04:32:42;;;;;;;1.53;1.53;;;-3.20;99.90;;;;;;5055667;28;20183;-82
2023/03/05 04:35:08;;;;;;;1.40;1.40;;;-3.00;99.90;;;;;;5055730;28;20199;-82
2023/03/05 04:37:34;;;;;;;2.57;2.37;;;-3.20;99.90;;;;;;5055367;28;20682;-82
2023/03/05 04:40:00;;;;;;;1.63;1.63;;;-2.90;99.90;;;;;;5037956;28;20179;-82
2023/03/05 04:42:26;;;;;;;1.20;1.20;;;-3.10;99.90;;;;;;5055694;28;20175;-82
2023/03/05 04:44:51;;;;;;;1.23;1.23;;;-3.10;99.90;;;;;;5021297;28;20538;-81
2023/03/05 04:47:18;;;;;;;16.53;1.53;;;-2.70;99.90;;;;;;5037715;28;20204;-82
2023/03/05 04:49:44;;;;;;;11.13;1.60;;;-2.20;99.90;;;;;;5037725;28;20225;-82
2023/03/05 04:52:11;;;;;;;1.00;1.00;;;-3.30;99.90;;;;;;5055504;28;20178;-81
2023/03/05 04:54:37;;;;;;;3.80;1.83;;;-2.70;99.90;;;;;;5055106;28;20205;-81
2023/03/05 04:57:03;;;;;;;1.43;1.43;;;-3.10;99.90;;;;;;5037955;28;20181;-82
2023/03/05 04:59:29;;;;;;;1.20;1.20;;;-2.50;99.90;;;;;;5055040;28;20565;-82
2023/03/05 05:01:55;;;;;;;4.57;2.70;;;-3.10;99.90;;;;;;5037630;28;20529;-81
2023/03/05 05:04:21;;;;;;;1.17;1.17;;;-3.40;99.90;;;;;;5037324;28;20186;-82
2023/03/05 05:06:46;;;;;;;3.10;1.83;;;-2.20;99.90;;;;;;5037452;28;20620;-81
2023/03/05 05:09:12;;;;;;;1.20;1.20;;;-2.50;99.90;;;;;;5055094;28;20180;-81
2023/03/05 05:11:39;;;;;;;5.67;2.20;;;-2.70;99.90;;;;;;5036969;28;20235;-81
2023/03/05 05:14:05;;;;;;;1.53;1.43;;;-3.30;99.90;;;;;;5054989;28;20260;-82
2023/03/05 05:16:31;;;;;;;1.50;1.50;;;-3.40;99.90;;;;;;5054736;28;20196;-82
2023/03/05 05:18:56;;;;;;;2.60;2.40;;;-2.10;99.90;;;;;;5054773;28;20190;-81
2023/03/05 05:21:22;;;;;;;1.83;1.73;;;-2.90;99.90;;;;;;5036836;28;20194;-81
2023/03/05 05:23:47;;;;;;;1.87;1.77;;;-2.80;99.90;;;;;;5054207;28;20576;-82
2023/03/05 05:26:13;;;;;;;1.30;1.30;;;-3.40;99.90;;;;;;5020458;28;20624;-82
2023/03/05 05:28:42;;;;;;;1.97;1.60;;;-2.60;99.90;;;;;;5036636;28;20493;-83
2023/03/05 05:31:13;;;;;;;1.20;1.20;;;-3.50;99.90;;;;;;5054799;28;20213;-82
2023/03/05 05:33:39;;;;;;;1.03;1.03;;;-3.40;99.90;;;;;;5054631;28;20207;-81
2023/03/05 05:36:07;;;;;;;1.60;1.50;;;-3.40;99.90;;;;;;5054604;28;20190;-82
2023/03/05 05:38:33;;;;;;;7.63;1.67;;;-3.40;99.90;;;;;;5054243;28;20314;-81
2023/03/05 05:41:10;;;;;;;1.03;1.00;;;-3.30;99.90;;;;;;5036490;28;20177;-82
2023/03/05 05:43:37;;;;;;;1.33;1.20;;;-3.20;99.90;;;;;;5054162;28;20202;-81
2023/03/05 05:46:04;;;;;;;1.03;1.03;;;-3.10;99.90;;;;;;5054449;28;20212;-82
2023/03/05 05:48:33;;;;;;;1.20;1.20;;;-3.10;99.90;;;;;;5036384;28;20233;-81
2023/03/05 05:50:59;;;;;;;1.57;1.57;;;-3.10;99.90;;;;;;5054241;28;20634;-82
2023/03/05 05:53:25;;;;;;;1.80;1.70;;;-3.10;99.90;;;;;;5035945;28;20193;-83
2023/03/05 05:55:51;;;;;;;2.90;2.57;;;-3.10;99.90;;;;;;5036544;28;20588;-81
2023/03/05 05:58:17;;;;;;;1.97;1.87;;;-3.10;99.90;;;;;;5054362;28;20175;-82
2023/03/05 06:00:43;;;;;;;3.23;1.30;;;-3.00;99.90;;;;;;5054061;28;20563;-80
2023/03/05 06:03:08;;;;;;;2.13;1.93;;;-2.30;99.90;;;;;;5036481;28;20247;-81
2023/03/05 06:05:34;;;;;;;1.90;1.80;;;-2.80;99.90;;;;;;5036094;28;20193;-82
2023/03/05 06:08:00;;;;;;;1.40;1.40;;;-2.80;99.90;;;;;;5053301;28;20187;-82
2023/03/05 06:10:26;;;;;;;1.90;1.80;;;-2.50;99.90;;;;;;5035629;28;20586;-82
2023/03/05 06:12:52;;;;;;;1.30;1.30;;;-2.60;99.90;;;;;;5053808;28;20243;-81
2023/03/05 06:15:18;;;;;;;1.13;1.13;;;-2.50;99.90;;;;;;5035781;28;20270;-81
2023/03/05 06:17:46;;;;;;;1.43;1.43;;;-2.50;99.90;;;;;;5053523;28;20191;-81
2023/03/05 06:20:13;;;;;;;5.27;1.67;;;-2.50;99.90;;;;;;5036282;28;20180;-81
2023/03/05 06:22:39;;;;;;;1.40;1.33;;;-2.40;99.90;;;;;;5053786;28;20177;-81
2023/03/05 06:25:06;;;;;;;2.13;2.03;;;-2.30;99.90;;;;;;5035691;28;20274;-81
2023/03/05 06:27:34;;;;;;;2.50;1.67;;;-2.20;99.90;;;;;;5052991;28;20172;-81
2023/03/05 06:30:00;;;;;;;1.20;1.20;;;-2.10;99.90;;;;;;5053428;28;20599;-81
2023/03/05 06:32:26;;;;;;;1.73;1.63;;;-2.10;99.90;;;;;;5053139;28;20185;-83
2023/03/05 06:34:51;;;;;;;3.53;3.23;;;-2.10;99.90;;;;;;5033342;28;20212;-81
2023/03/05 06:37:18;;;;;;;2.40;1.67;;;-2.00;99.90;;;;;;5045305;28;20196;-82
2023/03/05 06:39:43;;;;;;;3.90;2.30;;;-1.90;99.90;;;;;;5023735;28;20475;-81
2023/03/05 06:42:09;;;;;;;3.80;2.00;;;-1.80;99.90;;;;;;5043111;28;20640;-80
2023/03/05 06:44:40;;;;;;;1.33;1.33;;;-1.80;99.90;;;;;;5039395;28;20642;-81
2023/03/05 06:47:08;;;;;;;1.73;1.63;;;-1.80;99.90;;;;;;5042642;28;20171;-81
2023/03/05 06:49:33;;;;;;;1.57;1.47;;;-1.80;99.90;;;;;;5032383;28;20815;-82
2023/03/05 06:52:00;;;;;;;1.03;1.03;;;-1.80;99.90;;;;;;5024058;28;20195;-81
2023/03/05 06:54:26;;;;;;;2.93;1.40;;;-1.80;99.90;;;;;;5015351;28;20691;-81
2023/03/05 06:56:52;;;;;;;1.57;1.50;;;-1.80;99.90;;;;;;5032854;28;20188;-81
2023/03/05 06:59:17;;;;;;;1.17;1.17;;;-1.80;99.90;;;;;;5015438;28;20183;-81
2023/03/05 07:01:44;;;;;;;3.07;1.87;;;-1.80;99.90;;;;;;4998849;28;20175;-82
2023/03/05 07:04:11;;;;;;;2.30;1.60;;;-1.70;99.90;;;;;;5043818;28;20248;-81
2023/03/05 07:06:37;;;;;;;8.60;2.40;;;-1.60;99.90;;;;;;5049796;28;20728;-81
2023/03/05 07:09:06;;;;;;;1.57;1.47;;;-1.50;99.90;;;;;;5023944;28;20179;-82
2023/03/05 07:11:32;;;;;;;1.23;1.13;;;-1.40;99.90;;;;;;5042856;28;20232;-81
2023/03/05 07:13:58;;;;;;;5.07;1.83;;;-1.50;99.90;;;;;;5042366;28;20202;-82
2023/03/05 07:16:29;;;;;;;1.47;1.37;;;-1.40;99.90;;;;;;5043007;28;20769;-81
2023/03/05 07:18:57;;;;;;;2.20;2.00;;;-0.80;99.90;;;;;;5038059;28;20251;-82
2023/03/05 07:21:25;;;;;;;2.73;2.10;;;-1.10;99.90;;;;;;5045877;28;20212;-81
2023/03/05 07:23:56;;;;;;;1.93;1.73;;;-1.10;99.90;;;;;;5045273;28;20215;-81
2023/03/05 07:26:23;;;;;;;1.03;1.03;;;-1.10;99.90;;;;;;5041549;28;20187;-82
2023/03/05 07:28:48;;;;;;;3.93;2.00;;;-1.10;99.90;;;;;;5032201;28;20205;-83
2023/03/05 07:31:19;;;;;;;7.87;1.97;;;-1.00;99.90;;;;;;5035844;28;20184;-84
2023/03/05 07:33:46;;;;;;;2.57;2.37;;;-1.00;99.90;;;;;;5032591;28;20204;-83
2023/03/05 07:36:13;;;;;;;1.93;1.83;;;-1.00;99.90;;;;;;5032100;28;20193;-82
2023/03/05 07:38:39;;;;;;;5.43;1.73;;;-1.00;99.90;;;;;;5040107;28;20190;-83
2023/03/05 07:41:07;;;;;;;2.50;1.53;;;-1.10;99.90;;;;;;5020934;28;20537;-83
2023/03/05 07:43:33;;;;;;;3.90;1.60;;;-1.00;99.90;;;;;;5018383;28;20242;-84
2023/03/05 07:45:58;;;;;;;2.73;2.53;;;-0.90;99.90;;;;;;5042660;28;20189;-82
2023/03/05 07:48:24;;;;;;;1.47;1.37;;;-0.80;99.90;;;;;;5026529;28;20386;-83
2023/03/05 07:50:58;;;;;;;2.70;1.87;;;-0.70;99.50;;;;;;5025794;28;20200;-81
2023/03/05 07:53:24;;;;;;;3.20;1.27;;;-0.60;99.90;;;;;;5011500;28;20187;-81
2023/03/05 07:55:50;;;;;;;1.20;1.20;;;-0.60;95.80;;;;;;5045820;28;20183;-81
2023/03/05 07:58:15;;;;;;;3.50;1.80;;;-0.60;95.70;;;;;;5012800;28;20218;-82
2023/03/05 08:00:41;;;;;;;2.30;1.33;;;-0.50;94.10;;;;;;5044467;28;20184;-82
2023/03/05 08:03:07;;;;;;;1.80;1.70;;;-0.40;94.00;;;;;;5027193;28;20334;-82
2023/03/05 08:05:33;;;;;;;1.37;1.27;;;-0.20;92.40;;;;;;5027931;28;20233;-81
2023/03/05 08:07:58;;;;;;;3.57;2.07;;;-0.30;90.60;;;;;;5044644;28;20216;-82
2023/03/05 08:10:24;;;;;;;2.00;1.10;;;-0.30;90.20;;;;;;5026577;28;20195;-81
2023/03/05 08:12:50;;;;;;;1.87;1.40;;;-0.20;90.60;;;;;;5045385;28;20712;-82
2023/03/05 08:15:16;;;;;;;1.67;1.17;;;-0.20;88.30;;;;;;5026293;28;20201;-83
2023/03/05 08:17:41;;;;;;;0.97;0.97;;;-0.10;87.70;;;;;;5029284;28;20199;-82
2023/03/05 08:20:09;;;;;;;5.83;2.30;;;0.00;85.80;;;;;;5051248;28;20188;-82
2023/03/05 08:22:36;;;;;;;2.33;1.80;;;0.00;87.60;;;;;;5023185;28;20184;-81
2023/03/05 08:25:03;;;;;;;1.43;1.43;;;-0.10;83.30;;;;;;5049384;28;20196;-81
2023/03/05 08:27:29;;;;;;;3.93;0.90;;;0.00;83.60;;;;;;5023010;28;20600;-81
2023/03/05 08:29:55;;;;;;;1.27;1.27;;;-0.20;82.90;;;;;;5052867;28;20201;-82
2023/03/05 08:32:21;;;;;;;1.67;1.43;;;0.10;81.40;;;;;;5035455;28;20713;-82
2023/03/05 08:34:47;;;;;;;2.80;2.17;;;0.20;82.10;;;;;;5052913;28;20211;-81
2023/03/05 08:37:12;;;;;;;3.13;1.20;;;0.20;79.90;;;;;;5050734;28;20199;-81
2023/03/05 08:39:38;;;;;;;1.97;1.17;;;0.30;77.70;;;;;;5035035;28;20213;-81
2023/03/05 08:42:04;;;;;;;2.07;1.50;;;0.40;77.40;;;;;;5053260;28;20267;-81
2023/03/05 08:44:31;;;;;;;4.20;1.43;;;0.30;78.20;;;;;;5031701;28;20219;-80
2023/03/05 08:46:56;;;;;;;2.30;1.43;;;0.40;78.10;;;;;;5033315;28;20187;-81
2023/03/05 08:49:22;;;;;;;6.80;1.43;;;0.50;77.70;;;;;;5028769;28;20191;-81
2023/03/05 08:51:48;;;;;;;2.70;1.17;;;0.50;76.50;;;;;;5052860;28;20187;-81
2023/03/05 08:54:14;;;;;;;2.03;1.83;;;0.50;77.40;;;;;;5031801;28;20534;-83
2023/03/05 08:56:39;;;;;;;1.67;1.20;;;0.60;77.60;;;;;;5034850;28;20199;-85
2023/03/05 08:59:05;;;;;;;1.33;1.00;;;0.80;78.70;;;;;;5051043;28;20189;-82
2023/03/05 09:01:31;;;;;;;0.87;0.87;;;1.00;75.50;;;;;;5053246;28;20196;-84
2023/03/05 09:04:00;;;;;;;1.30;1.20;;;1.00;75.40;;;;;;5035770;28;20203;-83
2023/03/05 09:06:26;;;;;;;1.97;1.80;;;1.00;76.10;;;;;;5035265;28;20214;-83
2023/03/05 09:08:52;;;;;;;1.43;0.90;;;1.20;75.90;;;;;;5015058;28;20649;-83
2023/03/05 09:11:19;;;;;;;0.93;0.93;;;1.00;74.00;;;;;;5032272;28;20224;-83
2023/03/05 09:13:45;;;;;;;0.90;0.90;;;0.90;73.20;;;;;;5052427;28;20203;-82
2023/03/05 09:16:13;;;;;;;1.27;1.17;;;1.00;74.60;;;;;;5018190;28;20199;-83
2023/03/05 09:18:39;;;;;;;1.00;1.00;;;1.10;74.30;;;;;;5052476;28;20540;-82
2023/03/05 09:21:16;;;;;;;1.10;1.10;;;1.20;72.70;;;;;;5031256;28;20196;-82
2023/03/05 09:23:42;;;;;;;2.23;1.03;;;1.20;73.60;;;;;;5043530;28;20233;-85
2023/03/05 09:26:11;;;;;;;1.57;1.43;;;1.20;72.70;;;;;;5044269;28;20279;-82
2023/03/05 09:28:37;;;;;;;1.23;1.10;;;1.10;71.30;;;;;;5034463;28;20176;-83
2023/03/05 09:31:07;;;;;;;1.37;1.27;;;1.10;71.60;;;;;;5024351;28;20261;-82
2023/03/05 09:33:33;;;;;;;0.80;0.80;;;1.20;73.60;;;;;;5017998;28;20181;-83
2023/03/05 09:36:00;;;;;;;0.87;0.87;;;1.40;73.00;;;;;;5048406;28;20195;-82
2023/03/05 09:38:26;;;;;;;1.00;1.00;;;1.40;70.50;;;;;;5030597;28;20421;-85
2023/03/05 09:41:06;;;;;;;0.80;0.80;;;1.20;70.50;;;;;;5051911;28;20246;-83
2023/03/05 09:44:08;;;;;;;3.53;0.97;;;1.30;71.70;;;;;;5043368;28;20167;-84
2023/03/05 09:46:43;;;;;;;1.23;1.20;;;1.50;71.70;;;;;;5046857;28;20558;-82
2023/03/05 09:49:18;;;;;;;2.43;1.57;;;1.60;71.80;;;;;;5053244;28;20665;-82
2023/03/05 09:51:49;;;;;;;0.67;0.67;;;1.80;73.20;;;;;;5029235;28;20187;-84
2023/03/05 09:54:33;;;;;;;0.90;0.90;;;1.90;71.80;;;;;;5052508;28;20302;-82
2023/03/05 09:57:03;;;;;;;1.03;0.87;;;1.80;71.10;;;;;;5035408;28;20202;-83
2023/03/05 09:59:46;;;;;;;0.93;0.93;;;1.90;70.30;;;;;;5056255;28;20267;-84
2023/03/05 10:02:28;;;;;;;0.70;0.70;;;1.90;70.20;;;;;;5042681;28;20181;-84
2023/03/05 10:05:02;;;;;;;0.83;0.83;;;2.00;69.50;;;;;;5051502;28;20172;-81
2023/03/05 10:07:35;;;;;;;0.73;0.73;;;2.10;69.40;;;;;;5051624;28;20548;-83
2023/03/05 10:10:11;;;;;;;1.57;1.37;;;2.20;71.10;;;;;;5050880;28;20187;-83
2023/03/05 10:12:50;;;;;;;1.73;1.63;;;2.20;69.50;;;;;;5030146;28;20644;-83
2023/03/05 10:15:24;;;;;;;0.63;0.63;;;2.10;69.90;;;;;;5030114;28;20255;-83
2023/03/05 10:18:44;;;;;;;0.73;0.73;;;2.10;69.10;;;;;;5030076;28;20558;-83
2023/03/05 10:21:23;;;;;;;1.70;1.13;;;2.00;69.50;;;;;;4993030;28;20178;-83
2023/03/05 10:23:54;;;;;;;0.70;0.70;;;2.00;71.00;;;;;;5041194;28;20200;-82
2023/03/05 10:26:56;;;;;;;1.30;1.20;;;2.00;70.30;;;;;;5030065;28;20180;-84
2023/03/05 10:29:39;;;;;;;1.00;1.00;;;2.00;70.40;;;;;;5031696;28;20182;-83
2023/03/05 10:32:32;;;;;;;0.80;0.80;;;1.90;70.10;;;;;;5031075;28;20185;-81
2023/03/05 10:35:18;;;;;;;5.53;2.10;;;1.70;70.70;;;;;;5030970;28;20224;-83
2023/03/05 10:38:10;;;;;;;2.50;1.20;;;1.60;72.20;;;;;;5029873;28;20321;-83
2023/03/05 10:40:44;;;;;;;1.90;1.80;;;1.60;73.70;;;;;;5029966;28;20235;-83
2023/03/05 10:43:24;;;;;;;0.80;0.80;;;1.70;74.60;;;;;;5029870;28;20172;-83
2023/03/05 10:45:53;;;;;;;1.00;1.00;;;1.80;74.30;;;;;;5029433;28;20191;-82
2023/03/05 10:48:24;;;;;;;1.03;1.03;;;1.70;71.90;;;;;;5017184;28;20185;-82
2023/03/05 10:51:15;;;;;;;1.03;1.03;;;1.60;71.70;;;;;;5018476;28;20669;-82
2023/03/05 10:53:57;;;;;;;1.30;1.30;;;1.60;72.00;;;;;;5028557;28;20188;-83
2023/03/05 10:56:26;;;;;;;1.37;1.27;;;1.60;72.10;;;;;;5029537;28;20181;-83
2023/03/05 10:58:52;;;;;;;0.87;0.87;;;1.50;72.40;;;;;;5030113;28;20668;-83
2023/03/05 11:01:23;;;;;;;5.30;1.47;;;1.50;73.60;;;;;;5013102;28;20530;-83
2023/03/05 11:03:54;;;;;;;1.20;1.20;;;1.50;72.50;;;;;;5023668;28;20180;-82
2023/03/05 11:06:29;;;;;;;2.10;1.40;;;1.40;73.90;;;;;;5029280;28;20234;-84
2023/03/05 11:09:13;;;;;;;2.10;1.27;;;1.30;73.40;;;;;;5019483;28;20180;-84
2023/03/05 11:11:39;;;;;;;1.00;0.93;;;1.30;74.60;;;;;;5028545;28;20254;-83
2023/03/05 11:14:04;;;;;;;2.97;1.70;;;1.30;75.80;;;;;;5028367;28;20224;-85
2023/03/05 11:16:33;;;;;;;1.03;1.03;;;1.20;75.70;;;;;;5030363;28;20649;-83
2023/03/05 11:19:14;;;;;;;1.20;1.20;;;2.90;78.50;;;;;;5027725;28;20189;-83
2023/03/05 11:21:41;;;;;;;3.03;1.70;;;1.10;77.30;;;;;;5018945;28;20188;-82
2023/03/05 11:24:14;;;;;;;1.10;1.10;;;1.20;78.80;;;;;;5029072;28;20664;-83
2023/03/05 11:26:54;;;;;;;1.63;1.57;;;1.30;79.20;;;;;;5028713;28;20185;-83
2023/03/05 11:29:24;;;;;;;1.10;1.10;;;1.30;79.40;;;;;;5028623;28;20182;-82
2023/03/05 11:31:53;;;;;;;0.90;0.90;;;1.30;80.50;;;;;;5028114;28;20263;-85
2023/03/05 11:34:18;;;;;;;1.90;1.77;;;1.30;80.70;;;;;;5028643;28;20561;-83
2023/03/05 11:36:53;;;;;;;0.80;0.80;;;1.30;80.60;;;;;;5028566;28;20227;-83
2023/03/05 11:39:21;;;;;;;1.50;1.37;;;1.20;81.20;;;;;;5028326;28;20274;-83
2023/03/05 11:41:49;;;;;;;2.73;2.20;;;1.20;82.80;;;;;;5029631;28;20183;-86
2023/03/05 11:44:29;;;;;;;1.40;1.30;;;1.20;84.10;;;;;;5030092;28;20194;-81
2023/03/05 11:47:15;;;;;;;2.20;1.63;;;1.30;85.30;;;;;;5023243;28;20187;-83
2023/03/05 11:49:45;;;;;;;4.50;1.70;;;1.30;85.80;;;;;;5028594;28;20688;-85
2023/03/05 11:52:23;;;;;;;2.20;1.07;;;1.30;86.60;;;;;;5029777;28;20965;-85
2023/03/05 11:55:10;;;;;;;5.47;1.30;;;1.40;87.00;;;;;;5029838;28;20591;-83
2023/03/05 11:58:00;;;;;;;1.60;1.40;;;1.50;88.00;;;;;;5028551;28;20236;-82
2023/03/05 12:00:28;;;;;;;2.40;1.70;;;1.50;88.20;;;;;;5029505;28;20552;-83
2023/03/05 12:02:57;;;;;;;2.00;1.73;;;1.50;88.60;;;;;;5025667;28;20196;-83
2023/03/05 12:05:23;;;;;;;1.80;1.10;;;1.40;89.70;;;;;;5028605;28;20200;-83
2023/03/05 12:07:53;;;;;;;2.20;1.67;;;1.50;89.10;;;;;;5025028;28;20200;-86
2023/03/05 12:10:23;;;;;;;1.30;1.27;;;1.40;88.60;;;;;;5027200;28;20215;-86
2023/03/05 12:12:49;;;;;;;1.30;1.20;;;1.30;89.80;;;;;;5047058;28;20226;-85
2023/03/05 12:15:30;;;;;;;1.80;1.00;;;1.40;90.00;;;;;;5029506;28;20745;-82
2023/03/05 12:18:10;;;;;;;1.67;1.57;;;1.30;90.60;;;;;;5047917;28;20192;-82
2023/03/05 12:20:57;;;;;;;3.20;2.13;;;1.40;90.50;;;;;;5031742;28;20754;-82
2023/03/05 12:23:26;;;;;;;1.93;1.80;;;1.50;90.70;;;;;;5031496;28;20356;-80
2023/03/05 12:25:59;;;;;;;2.00;1.30;;;1.30;90.30;;;;;;5031285;28;20188;-81
2023/03/05 12:28:34;;;;;;;1.97;1.77;;;1.30;91.00;;;;;;5048108;28;20640;-81
2023/03/05 12:31:05;;;;;;;1.00;1.00;;;1.30;91.10;;;;;;5030237;28;20260;-82
2023/03/05 12:33:33;;;;;;;2.33;1.47;;;1.40;90.70;;;;;;5049746;28;20550;-83
2023/03/05 12:36:20;;;;;;;1.83;1.73;;;1.40;91.50;;;;;;5032768;28;20745;-83
2023/03/05 12:38:47;;;;;;;1.77;1.00;;;1.40;92.10;;;;;;5046995;28;20558;-81
2023/03/05 12:41:22;;;;;;;1.80;1.37;;;1.40;91.80;;;;;;5051329;28;20303;-82
2023/03/05 12:44:05;;;;;;;1.43;1.30;;;1.50;92.20;;;;;;5051081;28;20253;-82
2023/03/05 12:46:37;;;;;;;3.03;1.30;;;1.50;91.70;;;;;;5033230;28;20184;-83
2023/03/05 12:49:18;;;;;;;1.03;1.03;;;1.50;91.80;;;;;;5050337;28;20180;-84
2023/03/05 12:51:46;;;;;;;2.60;2.23;;;1.40;92.20;;;;;;5051882;28;20279;-81
2023/03/05 12:54:34;;;;;;;3.90;1.50;;;1.30;92.60;;;;;;5015592;28;20318;-82
2023/03/05 12:57:14;;;;;;;1.10;1.00;;;1.20;92.50;;;;;;5032974;28;20189;-82
2023/03/05 12:59:51;;;;;;;0.90;0.90;;;1.00;94.30;;;;;;5029292;28;20186;-83